WetterOnline ( https://www.wetteronline.at )

Wetter aktuell Stuttgart

Aktuelles Wetter: Schnarrenberg/Stuttgart (315m)

6-stündlich | Neueste Meldungen
Ortszeit Temperatur Wetter
Do, 20.06. 20:00 21.3° C wolkig
Do, 20.06. 14:00 19.9° C bedeckt
Do, 20.06. 8:00 17.1° C wolkig
Do, 20.06. 2:00 19.1° C bewölkt
Mi, 19.06. 20:00 27.3° C wolkenlos
Mi, 19.06. 14:00 29.4° C wolkenlos
Mi, 19.06. 8:00 20.8° C wolkig
Mi, 19.06. 2:00 19.5° C bedeckt
Ortszeit Temperatur Wetter
Do, 20.06. 21:00 21.1° C leicht bewölkt
Do, 20.06. 20:50 21.1° C leicht bewölkt
Do, 20.06. 20:40 21.0° C wolkig
Do, 20.06. 20:30 21.5° C wolkig
Do, 20.06. 20:20 21.5° C wolkig
Do, 20.06. 20:10 21.7° C bewölkt
Do, 20.06. 20:00 21.3° C wolkig
Do, 20.06. 19:30 21.1° C leicht bewölkt
Do, 20.06. 19:00 20.1° C leichter Regen
Do, 20.06. 18:30 20.5° C bewölkt
Do, 20.06. 18:00 20.7° C wolkig
Ortszeit Relative Feuchte Sichtweite
Do, 20.06. 20:00 66% >70 km
Do, 20.06. 14:00 68% 65 km
Do, 20.06. 8:00 89% >70 km
Do, 20.06. 2:00 81% 60 km
Mi, 19.06. 20:00 42% 45 km
Mi, 19.06. 14:00 37% 45 km
Mi, 19.06. 8:00 62% >70 km
Mi, 19.06. 2:00 80% 50 km
Ortszeit Relative Feuchte Sichtweite
Do, 20.06. 21:00 74% 65 km
Do, 20.06. 20:50 74% -
Do, 20.06. 20:40 72% -
Do, 20.06. 20:30 67% 55 km
Do, 20.06. 20:20 67% -
Do, 20.06. 20:10 65% -
Do, 20.06. 20:00 66% >70 km
Do, 20.06. 19:30 70% >70 km
Do, 20.06. 19:00 81% 21 km
Do, 20.06. 18:30 76% >70 km
Do, 20.06. 18:00 65% >70 km
Ortszeit Niederschlagsmenge Niederschlagsart
Do, 20.06. 20:00 2 l/m2 in 12 Std. Regenschauer
Do, 20.06. 14:00 0.0 l/m2 in 6 Std. -
Do, 20.06. 8:00 8 l/m2 in 12 Std. Regen
Do, 20.06. 2:00 6 l/m2 in 6 Std. Regenschauer
Mi, 19.06. 20:00 0.1 l/m2 in 12 Std. Regen
Mi, 19.06. 14:00 0.0 l/m2 in 6 Std. -
Mi, 19.06. 8:00 0.0 l/m2 in 12 Std. -
Mi, 19.06. 2:00 0.0 l/m2 in 6 Std. -
Ortszeit Niederschlagsmenge Niederschlagsart
Do, 20.06. 21:00 0.0 l/m2 in 1 Std. -
Do, 20.06. 20:50 keine Meldung -
Do, 20.06. 20:40 keine Meldung -
Do, 20.06. 20:30 0.0 l/m2 in 1 Std. -
Do, 20.06. 20:20 keine Meldung -
Do, 20.06. 20:10 keine Meldung -
Do, 20.06. 20:00 0.1 l/m2 in 1 Std. Regenschauer
Do, 20.06. 19:30 0.1 l/m2 in 1 Std. Schneeregen
Do, 20.06. 19:00 1.5 l/m2 in 1 Std. Regenschauer
Do, 20.06. 18:30 1.0 l/m2 in 1 Std. Schneeregen
Do, 20.06. 18:00 0.0 l/m2 in 1 Std. -
Ortszeit Stärke Spitze Richtung
km/h Bft. km/h Grad Sektor
Do, 20.06. 20:00 4 1 29 330° NW
Do, 20.06. 14:00 7 2 31 80° O
Do, 20.06. 8:00 7 2 29 200° S
Do, 20.06. 2:00 7 2 32 260° W
Mi, 19.06. 20:00 7 2 32 170° S
Mi, 19.06. 14:00 4 1 22 40° NO
Mi, 19.06. 8:00 9 2 20 130° SO
Mi, 19.06. 2:00 17 3 28 160° S
Ortszeit Stärke Spitze Richtung
km/h Bft. km/h Grad Sektor
Do, 20.06. 21:00 0 0 7 - -
Do, 20.06. 20:50 2 1 - 60° NO
Do, 20.06. 20:40 4 1 - 10° N
Do, 20.06. 20:30 4 1 4 20° N
Do, 20.06. 20:20 4 1 - 20° N
Do, 20.06. 20:10 2 1 - 360° N
Do, 20.06. 20:00 4 1 7 330° NW
Do, 20.06. 19:30 2 1 7 30° NO
Do, 20.06. 19:00 4 1 7 40° NO
Do, 20.06. 18:30 6 1 7 10° N
Do, 20.06. 18:00 6 1 15 40° NO
Ortszeit Untergrenze Bedeckung Gattung
total tief tief mittel hoch
Do, 20.06. 20:00 6600 m 5/8 4/8 - - -
Do, 20.06. 14:00 990 m 8/8 8/8 - - -
Do, 20.06. 8:00 1380 m 8/8 1/8 - - -
Do, 20.06. 2:00 1170 m 8/8 6/8 - - -
Mi, 19.06. 20:00 - 0/8 0/8 - - -
Mi, 19.06. 14:00 6900 m 0/8 0/8 - - -
Mi, 19.06. 8:00 4200 m 8/8 8/8 - - -
Mi, 19.06. 2:00 5100 m 8/8 8/8 - - -
Ortszeit Bedeckungsgrad in Achtel und Wolkenuntergrenze
Do, 20.06. 21:00 1(2100m) 5(5400m)
Do, 20.06. 20:50 1(2100m) 5(5400m)
Do, 20.06. 20:40 2(2100m) 8(5700m) 8(6600m)
Do, 20.06. 20:30 2(2100m) 8(6000m) 8(6900m)
Do, 20.06. 20:20 2(2100m) 8(6000m) 8(6900m)
Do, 20.06. 20:10 5(2700m) 7(6000m) 8(6900m)
Do, 20.06. 20:00 4(6600m) 5(8100m) 7(8100m)
Do, 20.06. 19:30 1(2100m)
Do, 20.06. 19:00 1(1500m) 7(2700m) 8(7200m)
Do, 20.06. 18:30 1(390m) 7(2100m) 7(7200m)
Do, 20.06. 18:00 3(1800m) 5(2400m) 5(8400m)
Ortszeit Luftdruck NN (hPa) Tendenz (hPa in 3 Std.)
Do, 20.06. 20:00 1013 + 0,4
Do, 20.06. 14:00 1013 0,0
Do, 20.06. 8:00 1013 + 0,5
Do, 20.06. 2:00 1012 + 1,8
Mi, 19.06. 20:00 1008 - 0,3
Mi, 19.06. 14:00 1009 - 0,6
Mi, 19.06. 8:00 1011 - 0,2
Mi, 19.06. 2:00 1013 - 0,1
Ortszeit Luftdruck NN (hPa) Tendenz (hPa in 3 Std.)
Do, 20.06. 21:00 1014 + 1,1
Do, 20.06. 20:50 1014 keine Meldung
Do, 20.06. 20:40 1014 keine Meldung
Do, 20.06. 20:30 1014 + 0,8
Do, 20.06. 20:20 1014 keine Meldung
Do, 20.06. 20:10 1014 keine Meldung
Do, 20.06. 20:00 1013 + 0,4
Do, 20.06. 19:30 1013 + 0,2
Do, 20.06. 19:00 1013 + 0,1
Do, 20.06. 18:30 1013 - 0,4
Do, 20.06. 18:00 1013 - 0,3
Ortszeit Schneehöhe (cm)
Do, 20.06. 20:00 -
Do, 20.06. 14:00 -
Do, 20.06. 8:00 -
Do, 20.06. 2:00 -
Mi, 19.06. 20:00 -
Mi, 19.06. 14:00 -
Mi, 19.06. 8:00 -
Mi, 19.06. 2:00 -
Ortszeit Schneehöhe (cm)
Do, 20.06. 21:00 -
Do, 20.06. 20:50 -
Do, 20.06. 20:40 -
Do, 20.06. 20:30 -
Do, 20.06. 20:20 -
Do, 20.06. 20:10 -
Do, 20.06. 20:00 -
Do, 20.06. 19:30 -
Do, 20.06. 19:00 -
Do, 20.06. 18:30 -
Do, 20.06. 18:00 -
Link zu dieser Seite / Seite empfehlen

Das Wetter in ...